Aviation Digital Data Service (ADDS)

Output produced by METARs form (2109 UTC 08 February 2016)
found at http://aviationweather.gov/adds/metars/
 
METAR text: KSPB 082053Z AUTO VRB03KT 10SM CLR 14/07 A3036 RMK AO2 SLP282 T01390067 58023
Conditions at: KSPB (SCAPPOOSE , OR, US) observed 2053 UTC 08 February 2016
Temperature: 13.9°C (57°F)
Dewpoint: 6.7°C (44°F) [RH = 62%]
Pressure (altimeter): 30.36 inches Hg (1028.2 mb)
[Sea-level pressure: 1028.2 mb]
Winds: variable direction winds at 3 MPH (3 knots; 1.6 m/s)
Visibility: 10 or more miles (16+ km)
Ceiling: at least 12,000 feet AGL
Clouds: sky clear below 12,000 feet AGL
Weather: automated observation with no human augmentation;
there may or may not be significant weather present at this time

METAR text: KSPB 081953Z AUTO 00000KT 10SM CLR 12/06 A3039 RMK AO2 SLP292 T01220061
Conditions at: KSPB (SCAPPOOSE , OR, US) observed 1953 UTC 08 February 2016
Temperature: 12.2°C (54°F)
Dewpoint: 6.1°C (43°F) [RH = 66%]
Pressure (altimeter): 30.39 inches Hg (1029.2 mb)
[Sea-level pressure: 1029.2 mb]
Winds: calm
Visibility: 10 or more miles (16+ km)
Ceiling: at least 12,000 feet AGL
Clouds: sky clear below 12,000 feet AGL
Weather: automated observation with no human augmentation;
there may or may not be significant weather present at this time